MTS Valour — MPVV8 — position and weather

sailwx.info

Track history (hours):
 
Tides and Currents Weather Stations Pressure Air Temp Water Temp Dewpoint Dewpoint Depression Visibility Wind Speed Wind Dir Waves Ship Positions

MTS Valour

Last reported at 2017-Mar-24 10:31 UTC. Time now 2017-Mar-25 10:00 UTC.
Position N 54°55' W 001°18'.

Length 24 m; draft 2.4 m.

Type: Tug. MMSI: 235040596.

Date/timePositionNaut miles runAvg speedWind from/ knotsBaromVisibWave heightAir tempDewpointWater temp
2017-Mar-24 10:31N 54°55' W 001°18'37 6.3
2017-Mar-24 04:33N 54°33' W 000°26'6 6.4
2017-Mar-24 03:33N 54°28' W 000°18'6 5.8
2017-Mar-24 02:34N 54°23' W 000°14'6 5.5
2017-Mar-24 01:33N 54°19' W 000°09'5 5.4
2017-Mar-24 00:33N 54°14' W 000°05'5 5.4
2017-Mar-23 23:33N 54°09' E 000°01'6 5.6
2017-Mar-23 22:32N 54°04' E 000°05'62 6.3
2017-Mar-23 12:33N 53°15' E 001°11'6 6.1
2017-Mar-23 11:33N 53°11' E 001°18'7 7.1
2017-Mar-23 10:33N 53°05' E 001°24'8 8.1
2017-Mar-23 09:33N 52°58' E 001°31'8 8.2
2017-Mar-23 08:33N 52°51' E 001°39'8 7.5
2017-Mar-23 07:33N 52°45' E 001°45'7 6.7
2017-Mar-23 06:33N 52°39' E 001°51'24 5.6
2017-Mar-23 02:13N 52°15' E 001°50'5 7.0
2017-Mar-23 01:33N 52°11' E 001°50'7 7.5
2017-Mar-23 00:33N 52°03' E 001°50'8 8.1
2017-Mar-22 23:33N 51°55' E 001°48'8 8.3
2017-Mar-22 22:33N 51°47' E 001°48'8 8.2
2017-Mar-22 21:33N 51°39' E 001°48'8 8.0
2017-Mar-22 20:33N 51°31' E 001°47'8 7.8
2017-Mar-22 19:33N 51°23' E 001°42'8 7.9
2017-Mar-22 18:33N 51°19' E 001°31'4 3.6
2017-Mar-22 17:33N 51°20' E 001°25'0 0.0
2017-Mar-22 16:33N 51°20' E 001°25'0 0.0
2017-Mar-22 15:33N 51°20' E 001°25'0 0.0
2017-Mar-22 14:33N 51°20' E 001°25'0 0.0
2017-Mar-22 13:33N 51°20' E 001°25'0 0.0
2017-Mar-22 12:33N 51°20' E 001°25'0 0.0
2017-Mar-22 11:33N 51°20' E 001°25'0 0.0
2017-Mar-22 10:33N 51°20' E 001°25'0 0.0
2017-Mar-22 09:33N 51°20' E 001°25'0 0.0
2017-Mar-22 08:30N 51°20' E 001°25'0 0.0
2017-Mar-22 07:33N 51°20' E 001°25'0 0.0
2017-Mar-22 06:33N 51°20' E 001°25'0 0.0
2017-Mar-22 05:33N 51°20' E 001°25'0 0.0
2017-Mar-22 04:33N 51°20' E 001°25'0 0.0
2017-Mar-22 03:33N 51°20' E 001°25'0 0.0
2017-Mar-22 02:33N 51°20' E 001°25'0 0.0
2017-Mar-22 01:33N 51°20' E 001°25'0 0.0
2017-Mar-22 00:33N 51°20' E 001°25'0 0.0
2017-Mar-21 23:33N 51°20' E 001°25'0 0.0
2017-Mar-21 22:33N 51°20' E 001°25'0 0.0
2017-Mar-21 21:33N 51°20' E 001°25'0 0.0
2017-Mar-21 20:33N 51°20' E 001°25'0 0.0
2017-Mar-21 19:33N 51°20' E 001°25'0 0.0
2017-Mar-21 18:33N 51°20' E 001°25'0 0.0
2017-Mar-21 17:33N 51°20' E 001°25'0 0.0
2017-Mar-21 16:33N 51°20' E 001°25'0 0.0
2017-Mar-21 15:33N 51°20' E 001°25'0 0.0
2017-Mar-21 14:33N 51°20' E 001°25'0 0.0
2017-Mar-21 13:33N 51°20' E 001°25'0 0.0
2017-Mar-21 12:33N 51°20' E 001°25'0 0.0
2017-Mar-21 11:33N 51°20' E 001°25'0 0.0
2017-Mar-21 10:33N 51°20' E 001°25'0 0.0
2017-Mar-21 09:33N 51°20' E 001°25'0 0.0
2017-Mar-21 08:33N 51°20' E 001°25'0 0.0
2017-Mar-21 07:33N 51°20' E 001°25'0 0.0
2017-Mar-21 06:33N 51°20' E 001°25'0 0.0
2017-Mar-21 05:33N 51°20' E 001°25'0 0.0
2017-Mar-21 04:33N 51°20' E 001°25'0 0.0
2017-Mar-21 03:33N 51°20' E 001°25'0 0.0
2017-Mar-21 02:33N 51°20' E 001°25'0 0.0
2017-Mar-21 01:33N 51°20' E 001°25'0 0.0
2017-Mar-21 00:33N 51°20' E 001°25'0 0.0
2017-Mar-20 23:33N 51°20' E 001°25'0 0.0
2017-Mar-20 22:33N 51°20' E 001°25'0 0.0
2017-Mar-20 21:33N 51°20' E 001°25'0 0.0
2017-Mar-20 20:33N 51°20' E 001°25'0 0.0
2017-Mar-20 19:33N 51°20' E 001°25'0 0.0
2017-Mar-20 18:33N 51°20' E 001°25'0 0.0
2017-Mar-20 17:33N 51°20' E 001°25'0 0.0
2017-Mar-20 16:33N 51°20' E 001°25'0 0.0
2017-Mar-20 15:33N 51°20' E 001°25'0 0.0
2017-Mar-20 14:33N 51°20' E 001°25'0 0.0
2017-Mar-20 13:33N 51°20' E 001°25'0 0.0
2017-Mar-20 12:33N 51°20' E 001°25'0 0.0
2017-Mar-20 11:33N 51°20' E 001°25'0 0.0
2017-Mar-20 10:33N 51°20' E 001°25'0 0.0
2017-Mar-20 09:33N 51°20' E 001°25'0 0.0
2017-Mar-20 08:33N 51°20' E 001°25'0 0.0
2017-Mar-20 07:33N 51°20' E 001°25'0 0.0
2017-Mar-20 06:33N 51°20' E 001°25'0 0.0
2017-Mar-20 05:33N 51°20' E 001°25'0 0.0
2017-Mar-20 04:33N 51°20' E 001°25'0 0.0
2017-Mar-20 03:30N 51°20' E 001°25'0 0.0
2017-Mar-20 02:33N 51°20' E 001°25'0 0.0
2017-Mar-20 01:33N 51°20' E 001°25'0 0.0
2017-Mar-20 00:33N 51°20' E 001°25'0 0.0
2017-Mar-19 23:33N 51°20' E 001°25'0 0.0
2017-Mar-19 22:30N 51°20' E 001°25'0 0.0
2017-Mar-19 21:33N 51°20' E 001°25'0 0.0
2017-Mar-19 20:33N 51°20' E 001°25'0 0.0
2017-Mar-19 19:33N 51°20' E 001°25'0 0.0
2017-Mar-19 18:33N 51°20' E 001°25'0 0.0
2017-Mar-19 17:33N 51°20' E 001°25'0 0.0
2017-Mar-19 16:33N 51°20' E 001°25'0 0.0
2017-Mar-19 15:33N 51°20' E 001°25'0 0.0
2017-Mar-19 14:33N 51°20' E 001°25'0 0.0
2017-Mar-19 13:33N 51°20' E 001°25'0 0.0
2017-Mar-19 12:33N 51°20' E 001°25'0 0.0
2017-Mar-19 11:33N 51°20' E 001°25'0 0.0
2017-Mar-19 10:33N 51°20' E 001°25'0 0.0
2017-Mar-19 09:33N 51°20' E 001°25'0 0.0
2017-Mar-19 08:33N 51°20' E 001°25'0 0.0
2017-Mar-19 07:33N 51°20' E 001°25'0 0.0
2017-Mar-19 06:33N 51°20' E 001°25'0 0.0
2017-Mar-19 05:33N 51°20' E 001°25'0 0.0
2017-Mar-19 04:33N 51°20' E 001°25'0 0.0
2017-Mar-19 03:33N 51°20' E 001°25'0 0.0
2017-Mar-19 02:33N 51°20' E 001°25'0 0.0
2017-Mar-19 01:33N 51°20' E 001°25'0 0.0
2017-Mar-19 00:33N 51°20' E 001°25'0 0.0
2017-Mar-18 23:33N 51°20' E 001°25'0 0.0
2017-Mar-18 22:33N 51°20' E 001°25'0 0.0
2017-Mar-18 21:33N 51°20' E 001°25'0 0.0
2017-Mar-18 20:33N 51°20' E 001°25'0 0.0
2017-Mar-18 19:33N 51°20' E 001°25'0 0.0
2017-Mar-18 18:33N 51°20' E 001°25'0 0.0
2017-Mar-18 17:33N 51°20' E 001°25'0 0.0
2017-Mar-18 16:33N 51°20' E 001°25'0 0.0
2017-Mar-18 15:33N 51°20' E 001°25'0 0.0
2017-Mar-18 14:33N 51°20' E 001°25'0 0.0
2017-Mar-18 13:33N 51°20' E 001°25'0 0.0
2017-Mar-18 12:30N 51°20' E 001°25'0 0.0
2017-Mar-18 11:33N 51°20' E 001°25'0 0.0
2017-Mar-18 10:33N 51°20' E 001°25'0 0.0
2017-Mar-18 09:33N 51°20' E 001°25'0 0.0
2017-Mar-18 08:33N 51°20' E 001°25'0 0.0
2017-Mar-18 07:30N 51°20' E 001°25'0 0.0
2017-Mar-18 06:33N 51°20' E 001°25'0 0.0
2017-Mar-18 05:33N 51°20' E 001°25'0 0.0
2017-Mar-18 04:33N 51°20' E 001°25'0 0.0
2017-Mar-18 03:33N 51°20' E 001°25'0 0.0
2017-Mar-18 02:33N 51°20' E 001°25'0 0.0
2017-Mar-18 01:33N 51°20' E 001°25'0 0.0
2017-Mar-18 00:33N 51°20' E 001°25'0 0.0
2017-Mar-17 23:33N 51°20' E 001°25'0 0.0
2017-Mar-17 22:33N 51°20' E 001°25'0 0.0
2017-Mar-17 21:33N 51°20' E 001°25'0 0.0
2017-Mar-17 20:33N 51°20' E 001°25'0 0.0
2017-Mar-17 19:33N 51°20' E 001°25'0 0.0
2017-Mar-17 18:33N 51°20' E 001°25'0 0.0
2017-Mar-17 17:33N 51°20' E 001°25'0 0.0
2017-Mar-17 16:33N 51°20' E 001°25'0 0.0
2017-Mar-17 15:33N 51°20' E 001°25'0 0.0
2017-Mar-17 14:33N 51°20' E 001°25'0 0.0
2017-Mar-17 13:33N 51°20' E 001°25'0 0.0
2017-Mar-17 12:33N 51°20' E 001°25'0 0.0
2017-Mar-17 11:33N 51°20' E 001°25'0 0.2
2017-Mar-17 10:33N 51°20' E 001°25'5 4.6
2017-Mar-17 09:33N 51°15' E 001°27'7 7.3
2017-Mar-17 08:33N 51°08' E 001°24'2 1.7
2017-Mar-17 07:08N 51°08' E 001°20'0 0.5
2017-Mar-17 06:33N 51°07' E 001°20'3 3.1
2017-Mar-17 05:33N 51°07' E 001°25'4 3.7
2017-Mar-17 04:33N 51°09' E 001°31'3 2.8
2017-Mar-17 03:33N 51°11' E 001°34'2 1.8
2017-Mar-17 02:33N 51°12' E 001°37'2 1.5
2017-Mar-17 01:34N 51°13' E 001°38'4 3.8
2017-Mar-17 00:33N 51°17' E 001°36'5 5.5
2017-Mar-16 23:33N 51°22' E 001°35'6 5.6
2017-Mar-16 22:33N 51°27' E 001°29'9 4.6
2017-Mar-16 20:33N 51°29' E 001°15'5 5.5
2017-Mar-16 19:33N 51°29' E 001°06'9 6.6
2017-Mar-16 18:09N 51°28' E 000°51'4 7.0
2017-Mar-16 17:33N 51°27' E 000°45'6 5.7
2017-Mar-16 16:33N 51°25' E 000°37'2 2.3
2017-Mar-16 15:33N 51°24' E 000°33'0 0.2
2017-Mar-16 14:33N 51°24' E 000°33'0 0.0
2017-Mar-16 13:34N 51°24' E 000°33'0 0.1
2017-Mar-16 10:06N 51°24' E 000°34'3 4.7
2017-Mar-16 09:23N 51°25' E 000°39'6 6.1
2017-Mar-16 08:22N 51°28' E 000°47'5 5.6
2017-Mar-16 07:32N 51°29' E 000°55'5 4.9
2017-Mar-16 06:33N 51°30' E 001°02'5 4.9
2017-Mar-16 05:33N 51°29' E 001°10'5 4.8
2017-Mar-16 04:32N 51°29' E 001°18'6 4.6
2017-Mar-16 03:13N 51°29' E 001°28'3 5.0
2017-Mar-16 02:33N 51°30' E 001°33'5 4.9
2017-Mar-16 01:33N 51°32' E 001°40'6 5.7
2017-Mar-16 00:33N 51°35' E 001°48'6 5.8
2017-Mar-15 23:33N 51°37' E 001°56'7 7.2
2017-Mar-15 22:33N 51°41' E 002°06'8 7.6
2017-Mar-15 21:33N 51°45' E 002°17'253 8.1
2017-Mar-14 14:30N 54°01' E 008°10'9 9.0
2017-Mar-14 13:33N 53°60' E 008°24'8 8.3
2017-Mar-14 12:33N 53°57' E 008°37'6 6.3
2017-Mar-14 11:33N 53°52' E 008°43'1 0.6
2017-Mar-14 10:33N 53°51' E 008°43'  
Track history (hours):
 
Tides and Currents Weather Stations Pressure Air Temp Water Temp Dewpoint Dewpoint Depression Visibility Wind Speed Wind Dir Waves Ship Positions

MTS Valour

Last reported at 2017-Mar-24 10:31 UTC. Time now 2017-Mar-25 10:00 UTC.
Position N 54°55' W 001°18'.

Length 24 m; draft 2.4 m.

Type: Tug. MMSI: 235040596.

Date/timePositionNaut miles runAvg speedWind from/ knotsBaromVisibWave heightAir tempDewpointWater temp
2017-Mar-24 10:31N 54°55' W 001°18'37 6.3
2017-Mar-24 04:33N 54°33' W 000°26'6 6.4
2017-Mar-24 03:33N 54°28' W 000°18'6 5.8
2017-Mar-24 02:34N 54°23' W 000°14'6 5.5
2017-Mar-24 01:33N 54°19' W 000°09'5 5.4
2017-Mar-24 00:33N 54°14' W 000°05'5 5.4
2017-Mar-23 23:33N 54°09' E 000°01'6 5.6
2017-Mar-23 22:32N 54°04' E 000°05'62 6.3
2017-Mar-23 12:33N 53°15' E 001°11'6 6.1
2017-Mar-23 11:33N 53°11' E 001°18'7 7.1
2017-Mar-23 10:33N 53°05' E 001°24'8 8.1
2017-Mar-23 09:33N 52°58' E 001°31'8 8.2
2017-Mar-23 08:33N 52°51' E 001°39'8 7.5
2017-Mar-23 07:33N 52°45' E 001°45'7 6.7
2017-Mar-23 06:33N 52°39' E 001°51'24 5.6
2017-Mar-23 02:13N 52°15' E 001°50'5 7.0
2017-Mar-23 01:33N 52°11' E 001°50'7 7.5
2017-Mar-23 00:33N 52°03' E 001°50'8 8.1
2017-Mar-22 23:33N 51°55' E 001°48'8 8.3
2017-Mar-22 22:33N 51°47' E 001°48'8 8.2
2017-Mar-22 21:33N 51°39' E 001°48'8 8.0
2017-Mar-22 20:33N 51°31' E 001°47'8 7.8
2017-Mar-22 19:33N 51°23' E 001°42'8 7.9
2017-Mar-22 18:33N 51°19' E 001°31'4 3.6
2017-Mar-22 17:33N 51°20' E 001°25'0 0.0
2017-Mar-22 16:33N 51°20' E 001°25'0 0.0
2017-Mar-22 15:33N 51°20' E 001°25'0 0.0
2017-Mar-22 14:33N 51°20' E 001°25'0 0.0
2017-Mar-22 13:33N 51°20' E 001°25'0 0.0
2017-Mar-22 12:33N 51°20' E 001°25'0 0.0
2017-Mar-22 11:33N 51°20' E 001°25'0 0.0
2017-Mar-22 10:33N 51°20' E 001°25'0 0.0
2017-Mar-22 09:33N 51°20' E 001°25'0 0.0
2017-Mar-22 08:30N 51°20' E 001°25'0 0.0
2017-Mar-22 07:33N 51°20' E 001°25'0 0.0
2017-Mar-22 06:33N 51°20' E 001°25'0 0.0
2017-Mar-22 05:33N 51°20' E 001°25'0 0.0
2017-Mar-22 04:33N 51°20' E 001°25'0 0.0
2017-Mar-22 03:33N 51°20' E 001°25'0 0.0
2017-Mar-22 02:33N 51°20' E 001°25'0 0.0
2017-Mar-22 01:33N 51°20' E 001°25'0 0.0
2017-Mar-22 00:33N 51°20' E 001°25'0 0.0
2017-Mar-21 23:33N 51°20' E 001°25'0 0.0
2017-Mar-21 22:33N 51°20' E 001°25'0 0.0
2017-Mar-21 21:33N 51°20' E 001°25'0 0.0
2017-Mar-21 20:33N 51°20' E 001°25'0 0.0
2017-Mar-21 19:33N 51°20' E 001°25'0 0.0
2017-Mar-21 18:33N 51°20' E 001°25'0 0.0
2017-Mar-21 17:33N 51°20' E 001°25'0 0.0
2017-Mar-21 16:33N 51°20' E 001°25'0 0.0
2017-Mar-21 15:33N 51°20' E 001°25'0 0.0
2017-Mar-21 14:33N 51°20' E 001°25'0 0.0
2017-Mar-21 13:33N 51°20' E 001°25'0 0.0
2017-Mar-21 12:33N 51°20' E 001°25'0 0.0
2017-Mar-21 11:33N 51°20' E 001°25'0 0.0
2017-Mar-21 10:33N 51°20' E 001°25'0 0.0
2017-Mar-21 09:33N 51°20' E 001°25'0 0.0
2017-Mar-21 08:33N 51°20' E 001°25'0 0.0
2017-Mar-21 07:33N 51°20' E 001°25'0 0.0
2017-Mar-21 06:33N 51°20' E 001°25'0 0.0
2017-Mar-21 05:33N 51°20' E 001°25'0 0.0
2017-Mar-21 04:33N 51°20' E 001°25'0 0.0
2017-Mar-21 03:33N 51°20' E 001°25'0 0.0
2017-Mar-21 02:33N 51°20' E 001°25'0 0.0
2017-Mar-21 01:33N 51°20' E 001°25'0 0.0
2017-Mar-21 00:33N 51°20' E 001°25'0 0.0
2017-Mar-20 23:33N 51°20' E 001°25'0 0.0
2017-Mar-20 22:33N 51°20' E 001°25'0 0.0
2017-Mar-20 21:33N 51°20' E 001°25'0 0.0
2017-Mar-20 20:33N 51°20' E 001°25'0 0.0
2017-Mar-20 19:33N 51°20' E 001°25'0 0.0
2017-Mar-20 18:33N 51°20' E 001°25'0 0.0
2017-Mar-20 17:33N 51°20' E 001°25'0 0.0
2017-Mar-20 16:33N 51°20' E 001°25'0 0.0
2017-Mar-20 15:33N 51°20' E 001°25'0 0.0
2017-Mar-20 14:33N 51°20' E 001°25'0 0.0
2017-Mar-20 13:33N 51°20' E 001°25'0 0.0
2017-Mar-20 12:33N 51°20' E 001°25'0 0.0
2017-Mar-20 11:33N 51°20' E 001°25'0 0.0
2017-Mar-20 10:33N 51°20' E 001°25'0 0.0
2017-Mar-20 09:33N 51°20' E 001°25'0 0.0
2017-Mar-20 08:33N 51°20' E 001°25'0 0.0
2017-Mar-20 07:33N 51°20' E 001°25'0 0.0
2017-Mar-20 06:33N 51°20' E 001°25'0 0.0
2017-Mar-20 05:33N 51°20' E 001°25'0 0.0
2017-Mar-20 04:33N 51°20' E 001°25'0 0.0
2017-Mar-20 03:30N 51°20' E 001°25'0 0.0
2017-Mar-20 02:33N 51°20' E 001°25'0 0.0
2017-Mar-20 01:33N 51°20' E 001°25'0 0.0
2017-Mar-20 00:33N 51°20' E 001°25'0 0.0
2017-Mar-19 23:33N 51°20' E 001°25'0 0.0
2017-Mar-19 22:30N 51°20' E 001°25'0 0.0
2017-Mar-19 21:33N 51°20' E 001°25'0 0.0
2017-Mar-19 20:33N 51°20' E 001°25'0 0.0
2017-Mar-19 19:33N 51°20' E 001°25'0 0.0
2017-Mar-19 18:33N 51°20' E 001°25'0 0.0
2017-Mar-19 17:33N 51°20' E 001°25'0 0.0
2017-Mar-19 16:33N 51°20' E 001°25'0 0.0
2017-Mar-19 15:33N 51°20' E 001°25'0 0.0
2017-Mar-19 14:33N 51°20' E 001°25'0 0.0
2017-Mar-19 13:33N 51°20' E 001°25'0 0.0
2017-Mar-19 12:33N 51°20' E 001°25'0 0.0
2017-Mar-19 11:33N 51°20' E 001°25'0 0.0
2017-Mar-19 10:33N 51°20' E 001°25'0 0.0
2017-Mar-19 09:33N 51°20' E 001°25'0 0.0
2017-Mar-19 08:33N 51°20' E 001°25'0 0.0
2017-Mar-19 07:33N 51°20' E 001°25'0 0.0
2017-Mar-19 06:33N 51°20' E 001°25'0 0.0
2017-Mar-19 05:33N 51°20' E 001°25'0 0.0
2017-Mar-19 04:33N 51°20' E 001°25'0 0.0
2017-Mar-19 03:33N 51°20' E 001°25'0 0.0
2017-Mar-19 02:33N 51°20' E 001°25'0 0.0
2017-Mar-19 01:33N 51°20' E 001°25'0 0.0
2017-Mar-19 00:33N 51°20' E 001°25'0 0.0
2017-Mar-18 23:33N 51°20' E 001°25'0 0.0
2017-Mar-18 22:33N 51°20' E 001°25'0 0.0
2017-Mar-18 21:33N 51°20' E 001°25'0 0.0
2017-Mar-18 20:33N 51°20' E 001°25'0 0.0
2017-Mar-18 19:33N 51°20' E 001°25'0 0.0
2017-Mar-18 18:33N 51°20' E 001°25'0 0.0
2017-Mar-18 17:33N 51°20' E 001°25'0 0.0
2017-Mar-18 16:33N 51°20' E 001°25'0 0.0
2017-Mar-18 15:33N 51°20' E 001°25'0 0.0
2017-Mar-18 14:33N 51°20' E 001°25'0 0.0
2017-Mar-18 13:33N 51°20' E 001°25'0 0.0
2017-Mar-18 12:30N 51°20' E 001°25'0 0.0
2017-Mar-18 11:33N 51°20' E 001°25'0 0.0
2017-Mar-18 10:33N 51°20' E 001°25'0 0.0
2017-Mar-18 09:33N 51°20' E 001°25'0 0.0
2017-Mar-18 08:33N 51°20' E 001°25'0 0.0
2017-Mar-18 07:30N 51°20' E 001°25'0 0.0
2017-Mar-18 06:33N 51°20' E 001°25'0 0.0
2017-Mar-18 05:33N 51°20' E 001°25'0 0.0
2017-Mar-18 04:33N 51°20' E 001°25'0 0.0
2017-Mar-18 03:33N 51°20' E 001°25'0 0.0
2017-Mar-18 02:33N 51°20' E 001°25'0 0.0
2017-Mar-18 01:33N 51°20' E 001°25'0 0.0
2017-Mar-18 00:33N 51°20' E 001°25'0 0.0
2017-Mar-17 23:33N 51°20' E 001°25'0 0.0
2017-Mar-17 22:33N 51°20' E 001°25'0 0.0
2017-Mar-17 21:33N 51°20' E 001°25'0 0.0
2017-Mar-17 20:33N 51°20' E 001°25'0 0.0
2017-Mar-17 19:33N 51°20' E 001°25'0 0.0
2017-Mar-17 18:33N 51°20' E 001°25'0 0.0
2017-Mar-17 17:33N 51°20' E 001°25'0 0.0
2017-Mar-17 16:33N 51°20' E 001°25'0 0.0
2017-Mar-17 15:33N 51°20' E 001°25'0 0.0
2017-Mar-17 14:33N 51°20' E 001°25'0 0.0
2017-Mar-17 13:33N 51°20' E 001°25'0 0.0
2017-Mar-17 12:33N 51°20' E 001°25'0 0.0
2017-Mar-17 11:33N 51°20' E 001°25'0 0.2
2017-Mar-17 10:33N 51°20' E 001°25'5 4.6
2017-Mar-17 09:33N 51°15' E 001°27'7 7.3
2017-Mar-17 08:33N 51°08' E 001°24'2 1.7
2017-Mar-17 07:08N 51°08' E 001°20'0 0.5
2017-Mar-17 06:33N 51°07' E 001°20'3 3.1
2017-Mar-17 05:33N 51°07' E 001°25'4 3.7
2017-Mar-17 04:33N 51°09' E 001°31'3 2.8
2017-Mar-17 03:33N 51°11' E 001°34'2 1.8
2017-Mar-17 02:33N 51°12' E 001°37'2 1.5
2017-Mar-17 01:34N 51°13' E 001°38'4 3.8
2017-Mar-17 00:33N 51°17' E 001°36'5 5.5
2017-Mar-16 23:33N 51°22' E 001°35'6 5.6
2017-Mar-16 22:33N 51°27' E 001°29'9 4.6
2017-Mar-16 20:33N 51°29' E 001°15'5 5.5
2017-Mar-16 19:33N 51°29' E 001°06'9 6.6
2017-Mar-16 18:09N 51°28' E 000°51'4 7.0
2017-Mar-16 17:33N 51°27' E 000°45'6 5.7
2017-Mar-16 16:33N 51°25' E 000°37'2 2.3
2017-Mar-16 15:33N 51°24' E 000°33'0 0.2
2017-Mar-16 14:33N 51°24' E 000°33'0 0.0
2017-Mar-16 13:34N 51°24' E 000°33'0 0.1
2017-Mar-16 10:06N 51°24' E 000°34'3 4.7
2017-Mar-16 09:23N 51°25' E 000°39'6 6.1
2017-Mar-16 08:22N 51°28' E 000°47'5 5.6
2017-Mar-16 07:32N 51°29' E 000°55'5 4.9
2017-Mar-16 06:33N 51°30' E 001°02'5 4.9
2017-Mar-16 05:33N 51°29' E 001°10'5 4.8
2017-Mar-16 04:32N 51°29' E 001°18'6 4.6
2017-Mar-16 03:13N 51°29' E 001°28'3 5.0
2017-Mar-16 02:33N 51°30' E 001°33'5 4.9
2017-Mar-16 01:33N 51°32' E 001°40'6 5.7
2017-Mar-16 00:33N 51°35' E 001°48'6 5.8
2017-Mar-15 23:33N 51°37' E 001°56'7 7.2
2017-Mar-15 22:33N 51°41' E 002°06'8 7.6
2017-Mar-15 21:33N 51°45' E 002°17'253 8.1
2017-Mar-14 14:30N 54°01' E 008°10'9 9.0
2017-Mar-14 13:33N 53°60' E 008°24'8 8.3
2017-Mar-14 12:33N 53°57' E 008°37'6 6.3
2017-Mar-14 11:33N 53°52' E 008°43'1 0.6
2017-Mar-14 10:33N 53°51' E 008°43'  

Dump ship's entire track history